Marchaser — V2OO6 — position and weather

sailwx.info

Track history (hours):
 
Tides and Currents Weather Stations Pressure Air Temp Water Temp Dewpoint Dewpoint Depression Visibility Wind Speed Wind Dir Waves Ship Positions

Marchaser

Last reported at 2014-Nov-22 15:32 UTC. Time now 2014-Nov-27 01:36 UTC.
Position N 25°19' W 080°03'.

Length 134 m; draft 7.6 m.

Type: Cargo ship. MMSI: 304617000.

Date/timePositionNaut miles runAvg speedWind from/ knotsBaromVisibWave heightAir tempDewpointWater temp
2014-Nov-22 15:32N 25°19' W 080°03'1413.4
2014-Nov-22 14:29N 25°33' W 080°02'1313.8
2014-Nov-22 13:33N 25°46' W 080°04'6 5.4
2014-Nov-22 12:31N 25°46' W 080°11'0 0.2
2014-Nov-22 11:25N 25°46' W 080°10'0 0.0
2014-Nov-22 10:22N 25°46' W 080°10'0 0.0
2014-Nov-22 09:10N 25°46' W 080°10'0 0.0
2014-Nov-22 08:28N 25°46' W 080°10'0 0.0
2014-Nov-22 07:28N 25°46' W 080°10'0 0.0
2014-Nov-22 06:28N 25°46' W 080°10'0 0.0
2014-Nov-22 05:16N 25°46' W 080°10'0 0.0
2014-Nov-22 04:31N 25°46' W 080°10'0 0.0
2014-Nov-22 03:31N 25°46' W 080°10'0 0.0
2014-Nov-22 02:28N 25°46' W 080°10'0 0.0
2014-Nov-22 01:19N 25°46' W 080°10'0 0.0
2014-Nov-22 00:31N 25°46' W 080°10'0 0.0
2014-Nov-21 23:31N 25°46' W 080°10'0 0.0
2014-Nov-21 22:22N 25°46' W 080°10'0 0.0
2014-Nov-21 21:22N 25°46' W 080°10'0 0.0
2014-Nov-21 20:25N 25°46' W 080°10'0 0.0
2014-Nov-21 19:25N 25°46' W 080°10'0 0.0
2014-Nov-21 18:28N 25°46' W 080°10'0 0.0
2014-Nov-21 17:28N 25°46' W 080°10'0 0.0
2014-Nov-21 16:28N 25°46' W 080°10'0 0.0
2014-Nov-21 15:28N 25°46' W 080°10'0 0.0
2014-Nov-21 14:28N 25°46' W 080°10'0 0.0
2014-Nov-21 13:13N 25°46' W 080°10'0 0.0
2014-Nov-21 12:16N 25°46' W 080°10'0 0.0
2014-Nov-21 11:31N 25°46' W 080°10'0 0.0
2014-Nov-21 10:19N 25°46' W 080°10'0 0.0
2014-Nov-21 09:22N 25°46' W 080°10'0 0.0
2014-Nov-21 08:22N 25°46' W 080°10'0 0.0
2014-Nov-21 07:25N 25°46' W 080°10'0 0.0
2014-Nov-21 06:25N 25°46' W 080°10'0 0.0
2014-Nov-21 05:25N 25°46' W 080°10'0 0.0
2014-Nov-21 04:25N 25°46' W 080°10'0 0.0
2014-Nov-21 03:28N 25°46' W 080°10'0 0.0
2014-Nov-21 02:28N 25°46' W 080°10'0 0.0
2014-Nov-21 01:31N 25°46' W 080°10'0 0.0
2014-Nov-21 00:31N 25°46' W 080°10'0 0.0
2014-Nov-20 23:31N 25°46' W 080°10'0 0.0
2014-Nov-20 22:31N 25°46' W 080°10'0 0.0
2014-Nov-20 21:31N 25°46' W 080°10'0 0.0
2014-Nov-20 20:31N 25°46' W 080°10'0 0.0
2014-Nov-20 19:31N 25°46' W 080°10'0 0.0
2014-Nov-20 18:19N 25°46' W 080°10'0 0.0
2014-Nov-20 17:25N 25°46' W 080°10'0 0.0
2014-Nov-20 16:22N 25°46' W 080°10'1 1.4
2014-Nov-20 15:33N 25°46' W 080°09'9 8.7
2014-Nov-20 14:33N 25°40' W 080°02'2114.9
2014-Nov-20 13:11N 25°20' W 080°02'1115.2
2014-Nov-20 12:29N 25°10' W 080°07'  
2014-Nov-15 09:13N 25°30' W 080°01'1217.8
2014-Nov-15 08:33N 25°42' W 080°03'8 7.1
2014-Nov-15 07:29N 25°46' W 080°10'0 0.5
2014-Nov-15 06:32N 25°46' W 080°10'0 0.0
2014-Nov-15 05:32N 25°46' W 080°10'0 0.0
2014-Nov-15 04:32N 25°46' W 080°10'0 0.0
2014-Nov-15 03:32N 25°46' W 080°10'0 0.0
2014-Nov-15 02:32N 25°46' W 080°10'0 0.0
2014-Nov-15 01:32N 25°46' W 080°10'0 0.0
2014-Nov-15 00:32N 25°46' W 080°10'0 0.0
2014-Nov-14 23:20N 25°46' W 080°10'0 0.0
2014-Nov-14 22:26N 25°46' W 080°10'0 0.0
2014-Nov-14 21:26N 25°46' W 080°10'0 0.0
2014-Nov-14 19:29N 25°46' W 080°10'0 0.0
2014-Nov-14 18:29N 25°46' W 080°10'0 0.0
2014-Nov-14 17:14N 25°46' W 080°10'0 0.0
2014-Nov-14 16:32N 25°46' W 080°10'0 0.0
2014-Nov-14 15:14N 25°46' W 080°10'0 0.0
2014-Nov-14 14:32N 25°46' W 080°10'0 0.0
2014-Nov-14 12:32N 25°46' W 080°10'0 0.0
2014-Nov-14 11:23N 25°46' W 080°10'0 0.0
2014-Nov-14 10:32N 25°46' W 080°10'0 0.0
2014-Nov-14 09:23N 25°46' W 080°10'0 0.0
2014-Nov-14 08:26N 25°46' W 080°10'0 0.0
2014-Nov-14 07:26N 25°46' W 080°10'0 0.0
2014-Nov-14 06:26N 25°46' W 080°10'0 0.0
2014-Nov-14 05:29N 25°46' W 080°10'0 0.0
2014-Nov-14 04:29N 25°46' W 080°10'0 0.0
2014-Nov-14 03:29N 25°46' W 080°10'0 0.0
2014-Nov-14 02:32N 25°46' W 080°10'0 0.0
2014-Nov-14 01:32N 25°46' W 080°10'0 0.0
2014-Nov-14 00:32N 25°46' W 080°10'0 0.0
2014-Nov-13 23:32N 25°46' W 080°10'0 0.0
2014-Nov-13 22:32N 25°46' W 080°10'0 0.0
2014-Nov-13 21:32N 25°46' W 080°10'0 0.0
2014-Nov-13 20:32N 25°46' W 080°10'0 0.0
2014-Nov-13 19:23N 25°46' W 080°10'0 0.0
2014-Nov-13 18:26N 25°46' W 080°10'0 0.0
2014-Nov-13 17:26N 25°46' W 080°10'0 0.0
2014-Nov-13 16:26N 25°46' W 080°10'0 0.0
2014-Nov-13 15:29N 25°46' W 080°10'0 0.0
2014-Nov-13 14:29N 25°46' W 080°10'0 0.0
2014-Nov-13 13:32N 25°46' W 080°10'0 0.0
2014-Nov-13 12:32N 25°46' W 080°10'0 0.0
2014-Nov-13 11:32N 25°46' W 080°10'0 0.2
2014-Nov-13 10:33N 25°46' W 080°10'10 9.8
2014-Nov-13 09:33N 25°40' W 080°02'2018.0
2014-Nov-13 08:28N 25°21' W 080°02'1718.4
2014-Nov-13 07:31N 25°05' W 080°10'  
Track history (hours):
 
Tides and Currents Weather Stations Pressure Air Temp Water Temp Dewpoint Dewpoint Depression Visibility Wind Speed Wind Dir Waves Ship Positions

Marchaser

Last reported at 2014-Nov-22 15:32 UTC. Time now 2014-Nov-27 01:36 UTC.
Position N 25°19' W 080°03'.

Length 134 m; draft 7.6 m.

Type: Cargo ship. MMSI: 304617000.

Date/timePositionNaut miles runAvg speedWind from/ knotsBaromVisibWave heightAir tempDewpointWater temp
2014-Nov-22 15:32N 25°19' W 080°03'1413.4
2014-Nov-22 14:29N 25°33' W 080°02'1313.8
2014-Nov-22 13:33N 25°46' W 080°04'6 5.4
2014-Nov-22 12:31N 25°46' W 080°11'0 0.2
2014-Nov-22 11:25N 25°46' W 080°10'0 0.0
2014-Nov-22 10:22N 25°46' W 080°10'0 0.0
2014-Nov-22 09:10N 25°46' W 080°10'0 0.0
2014-Nov-22 08:28N 25°46' W 080°10'0 0.0
2014-Nov-22 07:28N 25°46' W 080°10'0 0.0
2014-Nov-22 06:28N 25°46' W 080°10'0 0.0
2014-Nov-22 05:16N 25°46' W 080°10'0 0.0
2014-Nov-22 04:31N 25°46' W 080°10'0 0.0
2014-Nov-22 03:31N 25°46' W 080°10'0 0.0
2014-Nov-22 02:28N 25°46' W 080°10'0 0.0
2014-Nov-22 01:19N 25°46' W 080°10'0 0.0
2014-Nov-22 00:31N 25°46' W 080°10'0 0.0
2014-Nov-21 23:31N 25°46' W 080°10'0 0.0
2014-Nov-21 22:22N 25°46' W 080°10'0 0.0
2014-Nov-21 21:22N 25°46' W 080°10'0 0.0
2014-Nov-21 20:25N 25°46' W 080°10'0 0.0
2014-Nov-21 19:25N 25°46' W 080°10'0 0.0
2014-Nov-21 18:28N 25°46' W 080°10'0 0.0
2014-Nov-21 17:28N 25°46' W 080°10'0 0.0
2014-Nov-21 16:28N 25°46' W 080°10'0 0.0
2014-Nov-21 15:28N 25°46' W 080°10'0 0.0
2014-Nov-21 14:28N 25°46' W 080°10'0 0.0
2014-Nov-21 13:13N 25°46' W 080°10'0 0.0
2014-Nov-21 12:16N 25°46' W 080°10'0 0.0
2014-Nov-21 11:31N 25°46' W 080°10'0 0.0
2014-Nov-21 10:19N 25°46' W 080°10'0 0.0
2014-Nov-21 09:22N 25°46' W 080°10'0 0.0
2014-Nov-21 08:22N 25°46' W 080°10'0 0.0
2014-Nov-21 07:25N 25°46' W 080°10'0 0.0
2014-Nov-21 06:25N 25°46' W 080°10'0 0.0
2014-Nov-21 05:25N 25°46' W 080°10'0 0.0
2014-Nov-21 04:25N 25°46' W 080°10'0 0.0
2014-Nov-21 03:28N 25°46' W 080°10'0 0.0
2014-Nov-21 02:28N 25°46' W 080°10'0 0.0
2014-Nov-21 01:31N 25°46' W 080°10'0 0.0
2014-Nov-21 00:31N 25°46' W 080°10'0 0.0
2014-Nov-20 23:31N 25°46' W 080°10'0 0.0
2014-Nov-20 22:31N 25°46' W 080°10'0 0.0
2014-Nov-20 21:31N 25°46' W 080°10'0 0.0
2014-Nov-20 20:31N 25°46' W 080°10'0 0.0
2014-Nov-20 19:31N 25°46' W 080°10'0 0.0
2014-Nov-20 18:19N 25°46' W 080°10'0 0.0
2014-Nov-20 17:25N 25°46' W 080°10'0 0.0
2014-Nov-20 16:22N 25°46' W 080°10'1 1.4
2014-Nov-20 15:33N 25°46' W 080°09'9 8.7
2014-Nov-20 14:33N 25°40' W 080°02'2114.9
2014-Nov-20 13:11N 25°20' W 080°02'1115.2
2014-Nov-20 12:29N 25°10' W 080°07'  
2014-Nov-15 09:13N 25°30' W 080°01'1217.8
2014-Nov-15 08:33N 25°42' W 080°03'8 7.1
2014-Nov-15 07:29N 25°46' W 080°10'0 0.5
2014-Nov-15 06:32N 25°46' W 080°10'0 0.0
2014-Nov-15 05:32N 25°46' W 080°10'0 0.0
2014-Nov-15 04:32N 25°46' W 080°10'0 0.0
2014-Nov-15 03:32N 25°46' W 080°10'0 0.0
2014-Nov-15 02:32N 25°46' W 080°10'0 0.0
2014-Nov-15 01:32N 25°46' W 080°10'0 0.0
2014-Nov-15 00:32N 25°46' W 080°10'0 0.0
2014-Nov-14 23:20N 25°46' W 080°10'0 0.0
2014-Nov-14 22:26N 25°46' W 080°10'0 0.0
2014-Nov-14 21:26N 25°46' W 080°10'0 0.0
2014-Nov-14 19:29N 25°46' W 080°10'0 0.0
2014-Nov-14 18:29N 25°46' W 080°10'0 0.0
2014-Nov-14 17:14N 25°46' W 080°10'0 0.0
2014-Nov-14 16:32N 25°46' W 080°10'0 0.0
2014-Nov-14 15:14N 25°46' W 080°10'0 0.0
2014-Nov-14 14:32N 25°46' W 080°10'0 0.0
2014-Nov-14 12:32N 25°46' W 080°10'0 0.0
2014-Nov-14 11:23N 25°46' W 080°10'0 0.0
2014-Nov-14 10:32N 25°46' W 080°10'0 0.0
2014-Nov-14 09:23N 25°46' W 080°10'0 0.0
2014-Nov-14 08:26N 25°46' W 080°10'0 0.0
2014-Nov-14 07:26N 25°46' W 080°10'0 0.0
2014-Nov-14 06:26N 25°46' W 080°10'0 0.0
2014-Nov-14 05:29N 25°46' W 080°10'0 0.0
2014-Nov-14 04:29N 25°46' W 080°10'0 0.0
2014-Nov-14 03:29N 25°46' W 080°10'0 0.0
2014-Nov-14 02:32N 25°46' W 080°10'0 0.0
2014-Nov-14 01:32N 25°46' W 080°10'0 0.0
2014-Nov-14 00:32N 25°46' W 080°10'0 0.0
2014-Nov-13 23:32N 25°46' W 080°10'0 0.0
2014-Nov-13 22:32N 25°46' W 080°10'0 0.0
2014-Nov-13 21:32N 25°46' W 080°10'0 0.0
2014-Nov-13 20:32N 25°46' W 080°10'0 0.0
2014-Nov-13 19:23N 25°46' W 080°10'0 0.0
2014-Nov-13 18:26N 25°46' W 080°10'0 0.0
2014-Nov-13 17:26N 25°46' W 080°10'0 0.0
2014-Nov-13 16:26N 25°46' W 080°10'0 0.0
2014-Nov-13 15:29N 25°46' W 080°10'0 0.0
2014-Nov-13 14:29N 25°46' W 080°10'0 0.0
2014-Nov-13 13:32N 25°46' W 080°10'0 0.0
2014-Nov-13 12:32N 25°46' W 080°10'0 0.0
2014-Nov-13 11:32N 25°46' W 080°10'0 0.2
2014-Nov-13 10:33N 25°46' W 080°10'10 9.8
2014-Nov-13 09:33N 25°40' W 080°02'2018.0
2014-Nov-13 08:28N 25°21' W 080°02'1718.4
2014-Nov-13 07:31N 25°05' W 080°10'  

Dump ship's entire track history